Forside
METAR-TAF:

METAR-TAF

Lufthavne :

Marshfield Municipal Airport

Marshfield, Wisconsin, USA

Breddekreds: 44-38-17N, længdekreds: 090-11-15W, højde: 389 m

Aktuelle vejr

Denne rapport blev lavet for 15 minutter siden, kl. 18:54 UTC
Vind 4 kt fra vestnordvest
Temperatur 0°C
Fugtighed 93%
Tryk 996 hPa
Sigt: 0.4 km
Overskyet i en højde af 400 ft
kraftig sne, tåge

METAR: KMFI 091854Z AUTO 29004KT 1/4SM +SN FG OVC004 00/M01 A2940 RMK AO2 UPB02E05SNE02B11 SLP969 P0003 T00001011

Tid: 13:09 (19:09 UTC)


TAF: fraværende

Vejrobservationer og prognoser fra mere end 4000 lufthavne (METAR og TAF).

De gule og røde prikker repræsenterer de meteorologiske stationer.

Flyt musen over at se navnet på stationen.

Så klik over at se vejr observationer og prognoser.

At skifte det kort: Klik på de grønne knapper med et sort kors for at zoome ind; på den grønne knap med en bindestreg for at zoome ud; eller på de grønne pile for tilstødende kort.


METAR-TAF: